^^
Meteo Knjazevac Station Historical Data
Daily Summary for April 12, 2021 Units:  Both    English   Metric
Daily Weekly Monthly Yearly Custom
  High: Low: Average:
Temperature: 32.4 °F /  0.2 °C 31.5 °F /  -0.3 °C 32 °F /  0 °C
Dew Point: 32.1 °F /  0.1 °C 31.2 °F /  -0.4 °C 31.7 °F /  -0.2 °C
Humidity: 99% 99% 99%
Wind Speed: 6mph /  9.7km/h - 3.6mph /  5.8km/h
Wind Gust: 15mph /  24.1km/h - -
Wind- - SSW
Pressure: 30.11 in /  1019.5 hPa 30.03 in /  1016.8 hPa -
Precipitation: 0.00 in /  0 mm    
Historical Graphs
 
 
Tabular Data for April 12, 2021
Time Temperature Dew Point Pressure Wind Wind Speed Wind Gust Humidity Rainfall Rate (Hourly) solar Conditions
00:00 32.2 °F /  0.1 °C 31.9 °F /  -0.1 °C 30.10in /  1019.2hPa North 2mph /  3.2km/h 8mph /  12.9km/h 99% 0.00in /  0mm 0 W/m2
00:10 32.2 °F /  0.1 °C 31.9 °F /  -0.1 °C 30.10in /  1019.2hPa North 6mph /  9.7km/h 10mph /  16.1km/h 99% 0.00in /  0mm 0 W/m2
00:20 32.2 °F /  0.1 °C 31.9 °F /  -0.1 °C 30.10in /  1019.2hPa North 5mph /  8km/h 9mph /  14.5km/h 99% 0.00in /  0mm 0 W/m2
00:30 32.4 °F /  0.2 °C 32.1 °F /  0.1 °C 30.10in /  1019.2hPa North 6mph /  9.7km/h 9mph /  14.5km/h 99% 0.00in /  0mm 0 W/m2
00:40 32.2 °F /  0.1 °C 31.9 °F /  -0.1 °C 30.10in /  1019.2hPa North 6mph /  9.7km/h 11mph /  17.7km/h 99% 0.00in /  0mm 0 W/m2
00:50 32.2 °F /  0.1 °C 31.9 °F /  -0.1 °C 30.10in /  1019.2hPa North 2mph /  3.2km/h 10mph /  16.1km/h 99% 0.00in /  0mm 0 W/m2
01:00 32.2 °F /  0.1 °C 31.9 °F /  -0.1 °C 30.10in /  1019.2hPa North 3mph /  4.8km/h 11mph /  17.7km/h 99% 0.00in /  0mm 0 W/m2
01:10 32.2 °F /  0.1 °C 31.9 °F /  -0.1 °C 30.10in /  1019.2hPa North 6mph /  9.7km/h 11mph /  17.7km/h 99% 0.00in /  0mm 0 W/m2
01:20 32.2 °F /  0.1 °C 31.9 °F /  -0.1 °C 30.10in /  1019.2hPa North 3mph /  4.8km/h 13mph /  20.9km/h 99% 0.00in /  0mm 0 W/m2
01:30 32.2 °F /  0.1 °C 31.9 °F /  -0.1 °C 30.11in /  1019.5hPa North 2mph /  3.2km/h 9mph /  14.5km/h 99% 0.00in /  0mm 0 W/m2
01:40 32.2 °F /  0.1 °C 31.9 °F /  -0.1 °C 30.10in /  1019.2hPa North 2mph /  3.2km/h 13mph /  20.9km/h 99% 0.00in /  0mm 0 W/m2
01:50 32.2 °F /  0.1 °C 31.9 °F /  -0.1 °C 30.09in /  1018.8hPa North 2mph /  3.2km/h 6mph /  9.7km/h 99% 0.00in /  0mm 0 W/m2
02:00 32 °F /  0 °C 31.8 °F /  -0.1 °C 30.09in /  1018.8hPa North 1mph /  1.6km/h 8mph /  12.9km/h 99% 0.00in /  0mm 0 W/m2
02:10 32 °F /  0 °C 31.8 °F /  -0.1 °C 30.09in /  1018.8hPa North 1mph /  1.6km/h 5mph /  8km/h 99% 0.00in /  0mm 0 W/m2
02:20 32 °F /  0 °C 31.8 °F /  -0.1 °C 30.09in /  1018.8hPa North 3mph /  4.8km/h 7mph /  11.3km/h 99% 0.00in /  0mm 0 W/m2
02:30 32 °F /  0 °C 31.8 °F /  -0.1 °C 30.08in /  1018.5hPa North 3mph /  4.8km/h 8mph /  12.9km/h 99% 0.00in /  0mm 0 W/m2
02:40 32.1 °F /  0.1 °C 31.9 °F /  -0.1 °C 30.08in /  1018.5hPa North 2mph /  3.2km/h 9mph /  14.5km/h 99% 0.00in /  0mm 0 W/m2
02:50 32.2 °F /  0.1 °C 31.9 °F /  -0.1 °C 30.08in /  1018.5hPa North 5mph /  8km/h 12mph /  19.3km/h 99% 0.00in /  0mm 0 W/m2
03:00 32.1 °F /  0.1 °C 31.9 °F /  -0.1 °C 30.08in /  1018.5hPa North 6mph /  9.7km/h 12mph /  19.3km/h 99% 0.00in /  0mm 0 W/m2
03:10 32.1 °F /  0.1 °C 31.9 °F /  -0.1 °C 30.08in /  1018.5hPa North 6mph /  9.7km/h 12mph /  19.3km/h 99% 0.00in /  0mm 0 W/m2
03:20 32.1 °F /  0.1 °C 31.9 °F /  -0.1 °C 30.08in /  1018.5hPa North 3mph /  4.8km/h 9mph /  14.5km/h 99% 0.00in /  0mm 0 W/m2
03:30 32 °F /  0 °C 31.8 °F /  -0.1 °C 30.08in /  1018.5hPa North 5mph /  8km/h 11mph /  17.7km/h 99% 0.00in /  0mm 0 W/m2
03:40 32 °F /  0 °C 31.8 °F /  -0.1 °C 30.07in /  1018.2hPa North 3mph /  4.8km/h 13mph /  20.9km/h 99% 0.00in /  0mm 0 W/m2
03:50 32 °F /  0 °C 31.8 °F /  -0.1 °C 30.07in /  1018.2hPa North 5mph /  8km/h 12mph /  19.3km/h 99% 0.00in /  0mm 0 W/m2
04:00 32 °F /  0 °C 31.8 °F /  -0.1 °C 30.07in /  1018.2hPa North 5mph /  8km/h 11mph /  17.7km/h 99% 0.00in /  0mm 0 W/m2
04:10 32 °F /  0 °C 31.8 °F /  -0.1 °C 30.06in /  1017.8hPa North 5mph /  8km/h 12mph /  19.3km/h 99% 0.00in /  0mm 0 W/m2
04:20 32 °F /  0 °C 31.8 °F /  -0.1 °C 30.06in /  1017.8hPa North 5mph /  8km/h 15mph /  24.1km/h 99% 0.00in /  0mm 0 W/m2
04:30 32 °F /  0 °C 31.8 °F /  -0.1 °C 30.06in /  1017.8hPa North 3mph /  4.8km/h 12mph /  19.3km/h 99% 0.00in /  0mm 0 W/m2
04:40 32 °F /  0 °C 31.8 °F /  -0.1 °C 30.06in /  1017.8hPa North 3mph /  4.8km/h 10mph /  16.1km/h 99% 0.00in /  0mm 0 W/m2
04:50 32 °F /  0 °C 31.8 °F /  -0.1 °C 30.06in /  1017.8hPa North 2mph /  3.2km/h 8mph /  12.9km/h 99% 0.00in /  0mm 0 W/m2
05:00 31.8 °F /  -0.1 °C 31.6 °F /  -0.2 °C 30.05in /  1017.5hPa North 2mph /  3.2km/h 11mph /  17.7km/h 99% 0.00in /  0mm 0 W/m2
05:10 31.8 °F /  -0.1 °C 31.6 °F /  -0.2 °C 30.05in /  1017.5hPa North 3mph /  4.8km/h 10mph /  16.1km/h 99% 0.00in /  0mm 0 W/m2
05:20 31.9 °F /  -0.1 °C 31.7 °F /  -0.2 °C 30.05in /  1017.5hPa North 6mph /  9.7km/h 9mph /  14.5km/h 99% 0.00in /  0mm 0 W/m2
05:30 31.8 °F /  -0.1 °C 31.6 °F /  -0.2 °C 30.05in /  1017.5hPa North 5mph /  8km/h 10mph /  16.1km/h 99% 0.00in /  0mm 0 W/m2
05:40 31.8 °F /  -0.1 °C 31.6 °F /  -0.2 °C 30.05in /  1017.5hPa North 5mph /  8km/h 12mph /  19.3km/h 99% 0.00in /  0mm 0 W/m2
05:50 31.8 °F /  -0.1 °C 31.6 °F /  -0.2 °C 30.05in /  1017.5hPa North 3mph /  4.8km/h 11mph /  17.7km/h 99% 0.00in /  0mm 0 W/m2
06:00 31.8 °F /  -0.1 °C 31.6 °F /  -0.2 °C 30.05in /  1017.5hPa North 5mph /  8km/h 9mph /  14.5km/h 99% 0.00in /  0mm 0 W/m2
06:10 31.6 °F /  -0.2 °C 31.4 °F /  -0.3 °C 30.05in /  1017.5hPa North 5mph /  8km/h 9mph /  14.5km/h 99% 0.00in /  0mm 0 W/m2
06:20 31.6 °F /  -0.2 °C 31.4 °F /  -0.3 °C 30.05in /  1017.5hPa North 3mph /  4.8km/h 10mph /  16.1km/h 99% 0.00in /  0mm 0 W/m2
06:30 31.6 °F /  -0.2 °C 31.4 °F /  -0.3 °C 30.05in /  1017.5hPa NNW 2mph /  3.2km/h 8mph /  12.9km/h 99% 0.00in /  0mm 0 W/m2
06:40 31.5 °F /  -0.3 °C 31.2 °F /  -0.4 °C 30.04in /  1017.2hPa North 3mph /  4.8km/h 12mph /  19.3km/h 99% 0.00in /  0mm 0 W/m2
06:50 31.5 °F /  -0.3 °C 31.2 °F /  -0.4 °C 30.04in /  1017.2hPa North 3mph /  4.8km/h 11mph /  17.7km/h 99% 0.00in /  0mm 0 W/m2
07:00 31.5 °F /  -0.3 °C 31.2 °F /  -0.4 °C 30.04in /  1017.2hPa NNW 3mph /  4.8km/h 7mph /  11.3km/h 99% 0.00in /  0mm 0 W/m2
07:10 31.5 °F /  -0.3 °C 31.2 °F /  -0.4 °C 30.04in /  1017.2hPa NNW 1mph /  1.6km/h 8mph /  12.9km/h 99% 0.00in /  0mm 2 W/m2
07:20 31.5 °F /  -0.3 °C 31.2 °F /  -0.4 °C 30.04in /  1017.2hPa North 3mph /  4.8km/h 8mph /  12.9km/h 99% 0.00in /  0mm 3 W/m2
07:30 31.5 °F /  -0.3 °C 31.2 °F /  -0.4 °C 30.03in /  1016.8hPa North 3mph /  4.8km/h 9mph /  14.5km/h 99% 0.00in /  0mm 5 W/m2
Knjazevac, Serbia
Compliments of Weather Underground - 2 mb